Time,TemperatureF,DewpointF,PressureIn,WindDirection,WindDirectionDegrees,WindSpeedMPH,WindSpeedGustMPH,Humidity,HourlyPrecipIn,Conditions,Clouds,dailyrainin,SoftwareType,DateUTC
2013-06-24 00:00:00,74.0,-99.9,-100.00,East,93,4.0,6.0,-999,-99.99,,,-99.99,,2013-06-24 04:00:00,
2013-06-24 00:43:00,74.0,-99.9,-100.00,East,93,4.0,6.0,-999,-99.99,,,-99.99,,2013-06-24 04:43:00,
2013-06-24 00:53:00,74.0,-99.9,-100.00,East,93,4.0,6.0,-999,-99.99,,,-99.99,,2013-06-24 04:53:00,
2013-06-24 01:00:00,74.0,-99.9,-100.00,East,95,3.0,5.0,-999,-99.99,,,-99.99,,2013-06-24 05:00:00,
2013-06-24 01:49:00,74.0,-99.9,-100.00,East,95,3.0,5.0,-999,-99.99,,,-99.99,,2013-06-24 05:49:00,
2013-06-24 01:59:00,74.0,-99.9,-100.00,East,95,3.0,5.0,-999,-99.99,,,-99.99,,2013-06-24 05:59:00,
2013-06-24 02:00:00,73.0,-99.9,-100.00,ENE,67,0.0,4.0,-999,-99.99,,,-99.99,,2013-06-24 06:00:00,
2013-06-24 02:49:00,73.0,-99.9,-100.00,ENE,67,0.0,4.0,-999,-99.99,,,-99.99,,2013-06-24 06:49:00,
2013-06-24 02:57:00,73.0,-99.9,-100.00,ENE,67,0.0,4.0,-999,-99.99,,,-99.99,,2013-06-24 06:57:00,
2013-06-24 03:00:00,73.0,-99.9,-100.00,East,87,4.0,8.0,-999,-99.99,,,-99.99,,2013-06-24 07:00:00,
2013-06-24 03:50:00,73.0,-99.9,-100.00,East,87,4.0,8.0,-999,-99.99,,,-99.99,,2013-06-24 07:50:00,
2013-06-24 03:58:00,73.0,-99.9,-100.00,East,87,4.0,8.0,-999,-99.99,,,-99.99,,2013-06-24 07:58:00,
2013-06-24 04:49:00,73.0,-99.9,-100.00,East,93,2.0,6.0,-999,-99.99,,,-99.99,,2013-06-24 08:49:00,
2013-06-24 04:57:00,73.0,-99.9,-100.00,East,93,2.0,6.0,-999,-99.99,,,-99.99,,2013-06-24 08:57:00,
2013-06-24 05:00:00,73.0,-99.9,-100.00,ESE,123,8.0,9.0,-999,-99.99,,,-99.99,,2013-06-24 09:00:00,
2013-06-24 05:49:00,73.0,-99.9,-100.00,ESE,123,8.0,9.0,-999,-99.99,,,-99.99,,2013-06-24 09:49:00,
2013-06-24 06:00:00,71.0,-99.9,-100.00,SE,124,4.0,10.0,-999,-99.99,,,-99.99,,2013-06-24 10:00:00,
2013-06-24 07:00:00,71.0,-99.9,-100.00,SE,146,2.0,4.0,-999,-99.99,,,-99.99,,2013-06-24 11:00:00,
2013-06-24 07:52:00,71.0,-99.9,-100.00,SE,146,2.0,4.0,-999,-99.99,,,-99.99,,2013-06-24 11:52:00,
2013-06-24 08:00:00,72.0,-99.9,-100.00,ENE,70,4.0,7.0,-999,-99.99,,,-99.99,,2013-06-24 12:00:00,
2013-06-24 08:50:00,72.0,-99.9,-100.00,ENE,70,4.0,7.0,-999,-99.99,,,-99.99,,2013-06-24 12:50:00,
2013-06-24 08:56:00,72.0,-99.9,-100.00,ENE,70,4.0,7.0,-999,-99.99,,,-99.99,,2013-06-24 12:56:00,
2013-06-24 09:00:00,73.0,-99.9,-100.00,East,85,2.0,13.0,-999,-99.99,,,-99.99,,2013-06-24 13:00:00,
2013-06-24 09:46:00,73.0,-99.9,-100.00,East,85,2.0,13.0,-999,-99.99,,,-99.99,,2013-06-24 13:46:00,
2013-06-24 09:58:00,73.0,-99.9,-100.00,East,85,2.0,13.0,-999,-99.99,,,-99.99,,2013-06-24 13:58:00,
2013-06-24 10:00:00,74.0,-99.9,-100.00,ESE,120,5.0,7.0,-999,-99.99,,,-99.99,,2013-06-24 14:00:00,
2013-06-24 10:48:00,74.0,-99.9,-100.00,ESE,120,5.0,7.0,-999,-99.99,,,-99.99,,2013-06-24 14:48:00,
2013-06-24 11:00:00,76.0,-99.9,-100.00,NNE,33,3.0,5.0,-999,-99.99,,,-99.99,,2013-06-24 15:00:00,
2013-06-24 11:58:00,76.0,-99.9,-100.00,NNE,33,3.0,5.0,-999,-99.99,,,-99.99,,2013-06-24 15:58:00,
2013-06-24 12:00:00,76.0,-99.9,-100.00,SW,220,0.0,3.0,-999,-99.99,,,-99.99,,2013-06-24 16:00:00,
2013-06-24 12:46:00,76.0,-99.9,-100.00,SW,220,0.0,3.0,-999,-99.99,,,-99.99,,2013-06-24 16:46:00,
2013-06-24 12:57:00,76.0,-99.9,-100.00,SW,220,0.0,3.0,-999,-99.99,,,-99.99,,2013-06-24 16:57:00,
2013-06-24 13:00:00,74.0,-99.9,-100.00,South,190,9.0,34.0,-999,-99.99,,,-99.99,,2013-06-24 17:00:00,
2013-06-24 13:48:00,74.0,-99.9,-100.00,South,190,9.0,34.0,-999,-99.99,,,-99.99,,2013-06-24 17:48:00,
2013-06-24 13:58:00,74.0,-99.9,-100.00,South,190,9.0,34.0,-999,-99.99,,,-99.99,,2013-06-24 17:58:00,
2013-06-24 14:00:00,66.0,-99.9,-100.00,West,268,9.0,21.0,-999,-99.99,,,-99.99,,2013-06-24 18:00:00,
2013-06-24 14:50:00,66.0,-99.9,-100.00,West,268,9.0,21.0,-999,-99.99,,,-99.99,,2013-06-24 18:50:00,
2013-06-24 14:57:00,66.0,-99.9,-100.00,West,268,9.0,21.0,-999,-99.99,,,-99.99,,2013-06-24 18:57:00,
2013-06-24 15:00:00,69.0,-99.9,-100.00,SSW,202,0.0,8.0,-999,-99.99,,,-99.99,,2013-06-24 19:00:00,
2013-06-24 15:47:00,69.0,-99.9,-100.00,SSW,202,0.0,8.0,-999,-99.99,,,-99.99,,2013-06-24 19:47:00,
2013-06-24 15:57:00,69.0,-99.9,-100.00,SSW,202,0.0,8.0,-999,-99.99,,,-99.99,,2013-06-24 19:57:00,
2013-06-24 16:48:00,70.0,-99.9,-100.00,North,6,6.0,16.0,-999,-99.99,,,-99.99,,2013-06-24 20:48:00,
2013-06-24 16:56:00,70.0,-99.9,-100.00,North,6,6.0,16.0,-999,-99.99,,,-99.99,,2013-06-24 20:56:00,
2013-06-24 17:00:00,73.0,-99.9,-100.00,East,90,6.0,9.0,-999,-99.99,,,-99.99,,2013-06-24 21:00:00,
2013-06-24 17:49:00,73.0,-99.9,-100.00,East,90,6.0,9.0,-999,-99.99,,,-99.99,,2013-06-24 21:49:00,
2013-06-24 17:56:00,73.0,-99.9,-100.00,East,90,6.0,9.0,-999,-99.99,,,-99.99,,2013-06-24 21:56:00,
2013-06-24 18:00:00,76.0,-99.9,-100.00,East,97,9.0,12.0,-999,-99.99,,,-99.99,,2013-06-24 22:00:00,
2013-06-24 18:38:00,76.0,-99.9,-100.00,East,97,9.0,12.0,-999,-99.99,,,-99.99,,2013-06-24 22:38:00,
2013-06-24 18:51:00,76.0,-99.9,-100.00,East,97,9.0,12.0,-999,-99.99,,,-99.99,,2013-06-24 22:51:00,
2013-06-24 18:56:00,76.0,-99.9,-100.00,East,97,9.0,12.0,-999,-99.99,,,-99.99,,2013-06-24 22:56:00,
2013-06-24 19:00:00,77.0,-99.9,-100.00,South,190,1.0,10.0,-999,-99.99,,,-99.99,,2013-06-24 23:00:00,
2013-06-24 19:47:00,77.0,-99.9,-100.00,South,190,1.0,10.0,-999,-99.99,,,-99.99,,2013-06-24 23:47:00,
2013-06-24 19:56:00,77.0,-99.9,-100.00,South,190,1.0,10.0,-999,-99.99,,,-99.99,,2013-06-24 23:56:00,
2013-06-24 21:00:00,76.0,-99.9,-100.00,East,101,6.0,9.0,-999,-99.99,,,-99.99,,2013-06-25 01:00:00,
2013-06-24 21:59:00,76.0,-99.9,-100.00,East,101,6.0,9.0,-999,-99.99,,,-99.99,,2013-06-25 01:59:00,
2013-06-24 23:00:00,71.0,-99.9,-100.00,East,94,8.0,9.0,-999,-99.99,,,-99.99,,2013-06-25 03:00:00,